Startpagina
METAR-TAF:

METAR-TAF

Vliegvelden :

Río Hato, Panama

breedte: 08-22-33N, lengte: 080-07-40W, hoogte: 32 m

METAR: ontbreekt

Tijdstip: 14:45 (19:45 UTC)

Verwachting

Dit bericht is 20 uur en het 45 minuten geleden gemaakt, om 23:00 UTC
Verwachting geldig van 22 om 00 UTC tot 23 om 06 UTC
Wind 8 kt uit het noorden
Zicht 10 km of meer
Weinig wolken op 2000 ft
Tijdelijke
van 22 om 19 UTC tot 22 om 21 UTC
Wind 18 kt uit het noorden

TAF: MPSM 212300Z 2200/2306 35008KT 9999 FEW020 TEMPO 2219/2221 01018KT

Waarnemingen en weersverwachtingen van meer dan 4000 vliegvelden (METAR en TAF).

De beschikbare stations zijn de gele en rode punten op de kaart.

Ga met uw muis naar het station om de naam te zien.

Klik dan om waarnemingen en weersverwachtingen te zien.

kaart wijzigen: klik op de groene knoppen met een zwart kruis om in te zoomen, op de groene knop met een streepje om uit te zoomen of op de groene pijlen voor aangrenzende kaarten.


METAR-TAF: